Time;durP1;ratioP1;P1;durP2;ratioP2;P2;SDS_P1;SDS_P2;PMS_P1;PMS_P2;Temp;Humidity;BMP_temperature;BMP_pressure;BME280_temperature;BME280_humidity;BME280_pressure;Samples;Min_cycle;Max_cycle;Signal;HPM_P1;HPM_P2
2022/07/30 00:02:08;;;;;;;6.72;4.95;;;15.80;99.90;;;;;;5036870;28;20041;-70
2022/07/30 00:04:34;;;;;;;7.40;5.55;;;15.70;99.90;;;;;;5035871;28;20041;-70
2022/07/30 00:07:03;;;;;;;7.47;4.90;;;15.70;99.90;;;;;;5036619;28;20107;-70
2022/07/30 00:09:29;;;;;;;9.10;5.00;;;15.70;99.90;;;;;;5038417;28;20095;-70
2022/07/30 00:11:55;;;;;;;8.52;5.32;;;15.70;99.90;;;;;;5036890;28;20049;-70
2022/07/30 00:14:20;;;;;;;7.22;5.07;;;15.70;99.90;;;;;;5039570;28;20041;-70
2022/07/30 00:16:46;;;;;;;5.75;4.60;;;15.60;99.90;;;;;;5037347;28;20128;-70
2022/07/30 00:19:12;;;;;;;7.68;5.00;;;15.60;99.90;;;;;;5037348;28;20041;-69
2022/07/30 00:21:37;;;;;;;6.55;5.25;;;15.60;99.90;;;;;;5038105;28;20503;-69
2022/07/30 00:24:03;;;;;;;9.15;5.10;;;15.60;99.90;;;;;;5040221;28;20041;-69
2022/07/30 00:26:29;;;;;;;7.05;4.75;;;15.60;99.90;;;;;;5039994;28;20037;-69
2022/07/30 00:28:57;;;;;;;7.07;4.88;;;15.60;99.90;;;;;;5039771;28;20106;-69
2022/07/30 00:31:23;;;;;;;6.13;4.78;;;15.60;99.90;;;;;;5041648;28;20037;-70
2022/07/30 00:33:48;;;;;;;6.68;5.05;;;15.60;99.90;;;;;;5035875;28;20044;-70
2022/07/30 00:36:14;;;;;;;6.50;4.90;;;15.50;99.90;;;;;;5040774;28;20144;-70
2022/07/30 00:38:40;;;;;;;6.25;4.95;;;15.50;99.90;;;;;;5039817;28;20037;-69
2022/07/30 00:41:05;;;;;;;6.28;4.72;;;15.50;99.90;;;;;;5039891;28;20429;-70
2022/07/30 00:43:31;;;;;;;6.60;5.00;;;15.40;99.90;;;;;;5043420;28;20047;-69
2022/07/30 00:45:56;;;;;;;9.10;5.07;;;15.30;99.90;;;;;;5042952;28;20045;-70
2022/07/30 00:48:22;;;;;;;5.85;4.60;;;15.30;99.90;;;;;;5042882;28;20430;-70
2022/07/30 00:50:48;;;;;;;7.03;4.78;;;15.20;99.90;;;;;;5042621;28;20047;-70
2022/07/30 00:53:13;;;;;;;10.93;4.95;;;15.20;99.90;;;;;;5044634;28;20143;-70
2022/07/30 00:55:39;;;;;;;6.65;4.55;;;15.20;99.90;;;;;;5041955;28;20055;-70
2022/07/30 00:58:04;;;;;;;6.22;5.28;;;15.10;99.90;;;;;;5044242;28;20045;-69
2022/07/30 01:00:30;;;;;;;8.23;5.63;;;15.10;99.90;;;;;;5043367;28;20083;-70
2022/07/30 01:02:56;;;;;;;8.10;5.25;;;15.00;99.90;;;;;;5040176;28;20080;-70
2022/07/30 01:05:22;;;;;;;7.05;5.30;;;15.00;99.90;;;;;;5038852;28;20052;-69
2022/07/30 01:07:47;;;;;;;6.72;5.65;;;15.00;99.90;;;;;;5044864;28;20120;-69
2022/07/30 01:10:14;;;;;;;7.30;5.35;;;15.00;99.90;;;;;;5042153;28;20029;-70
2022/07/30 01:12:41;;;;;;;8.07;5.70;;;14.90;99.90;;;;;;5045857;28;20037;-70
2022/07/30 01:15:08;;;;;;;6.53;5.05;;;14.80;99.90;;;;;;5042099;28;20072;-70
2022/07/30 01:17:35;;;;;;;6.78;4.72;;;14.80;99.90;;;;;;5036339;28;20069;-70
2022/07/30 01:20:22;;;;;;;6.68;4.82;;;14.80;99.90;;;;;;5043818;28;20120;-70
2022/07/30 01:23:11;;;;;;;7.88;5.20;;;14.70;99.90;;;;;;5040802;28;20037;-68
2022/07/30 01:25:59;;;;;;;6.13;4.90;;;14.70;99.90;;;;;;5038159;28;20048;-68
2022/07/30 01:28:30;;;;;;;9.43;5.32;;;14.60;99.90;;;;;;5041961;28;20118;-68
2022/07/30 01:30:57;;;;;;;8.43;5.07;;;14.60;99.90;;;;;;5043919;28;20123;-68
2022/07/30 01:33:24;;;;;;;7.68;5.20;;;14.60;99.90;;;;;;5041770;28;20052;-68
2022/07/30 01:35:51;;;;;;;7.97;5.82;;;14.60;99.90;;;;;;5041649;28;20049;-68
2022/07/30 01:38:21;;;;;;;7.80;5.05;;;14.70;99.90;;;;;;5042172;28;20046;-69
2022/07/30 01:40:49;;;;;;;9.77;5.40;;;14.60;99.90;;;;;;5043641;28;20041;-67
2022/07/30 01:43:16;;;;;;;7.75;5.40;;;14.60;99.90;;;;;;5042034;28;20041;-69
2022/07/30 01:46:02;;;;;;;7.03;5.50;;;14.50;99.90;;;;;;5041924;28;20059;-70
2022/07/30 01:48:29;;;;;;;8.85;5.30;;;14.50;99.90;;;;;;5041693;28;20045;-68
2022/07/30 01:50:57;;;;;;;7.55;5.45;;;14.50;99.90;;;;;;5039877;28;20382;-68
2022/07/30 01:53:28;;;;;;;6.53;4.75;;;14.50;99.90;;;;;;5042345;28;20036;-69
2022/07/30 01:55:55;;;;;;;7.65;5.40;;;14.50;99.90;;;;;;5039853;28;20100;-69
2022/07/30 01:58:27;;;;;;;7.63;5.43;;;14.40;99.90;;;;;;5044209;28;20131;-69
2022/07/30 02:00:55;;;;;;;8.25;5.47;;;14.40;99.90;;;;;;5041570;28;20048;-70
2022/07/30 02:03:21;;;;;;;7.03;5.07;;;14.40;99.90;;;;;;5040134;28;20029;-70
2022/07/30 02:05:55;;;;;;;6.43;5.00;;;14.40;99.90;;;;;;5041963;28;20426;-70
2022/07/30 02:08:27;;;;;;;7.30;4.82;;;14.30;99.90;;;;;;5042138;28;20037;-70
2022/07/30 02:11:14;;;;;;;7.75;5.30;;;14.20;99.90;;;;;;5043299;28;20045;-70
2022/07/30 02:13:53;;;;;;;8.60;4.72;;;14.20;99.90;;;;;;5039458;28;20096;-70
2022/07/30 02:16:39;;;;;;;7.47;5.38;;;14.20;99.90;;;;;;5040982;28;20042;-70
2022/07/30 02:19:10;;;;;;;7.05;4.95;;;14.20;99.90;;;;;;5035716;28;20073;-69
2022/07/30 02:21:43;;;;;;;7.60;4.85;;;14.20;99.90;;;;;;5041857;28;20045;-70
2022/07/30 02:24:15;;;;;;;8.73;5.20;;;14.10;99.90;;;;;;5041151;28;20048;-70
2022/07/30 02:26:42;;;;;;;6.65;4.70;;;14.20;99.90;;;;;;5040481;28;20103;-70
2022/07/30 02:29:09;;;;;;;7.68;5.05;;;14.20;99.90;;;;;;5042845;28;20042;-70
2022/07/30 02:31:37;;;;;;;9.05;5.10;;;14.10;99.90;;;;;;5042230;28;20662;-69
2022/07/30 02:34:05;;;;;;;7.30;5.00;;;14.20;99.90;;;;;;5039749;28;20056;-70
2022/07/30 02:36:32;;;;;;;9.63;5.40;;;14.10;99.90;;;;;;5043599;28;20063;-70
2022/07/30 02:38:58;;;;;;;9.27;5.60;;;14.10;99.90;;;;;;5041115;28;20139;-70
2022/07/30 02:41:27;;;;;;;9.73;5.88;;;14.00;99.90;;;;;;5042408;28;20048;-70
2022/07/30 02:43:53;;;;;;;8.98;5.07;;;14.20;99.90;;;;;;5039461;28;20084;-70
2022/07/30 02:46:22;;;;;;;8.90;5.57;;;14.00;99.90;;;;;;5037016;28;20029;-70
2022/07/30 02:48:50;;;;;;;8.63;4.88;;;14.10;99.90;;;;;;5032323;28;20042;-70
2022/07/30 02:51:17;;;;;;;9.15;5.53;;;13.90;99.90;;;;;;5042879;28;20045;-70
2022/07/30 02:53:45;;;;;;;6.57;4.93;;;13.90;99.90;;;;;;5039641;28;20052;-69
2022/07/30 02:56:12;;;;;;;7.90;4.80;;;13.80;99.90;;;;;;5040942;28;20508;-69
2022/07/30 02:58:39;;;;;;;6.63;4.68;;;13.80;99.90;;;;;;5041590;28;20041;-69
2022/07/30 03:01:06;;;;;;;6.75;4.57;;;13.80;99.90;;;;;;5042420;28;20037;-69
2022/07/30 03:03:32;;;;;;;6.82;4.28;;;13.80;99.90;;;;;;5039156;28;20042;-69
2022/07/30 03:05:59;;;;;;;9.20;4.70;;;13.70;99.90;;;;;;5042221;28;20033;-70
2022/07/30 03:08:26;;;;;;;6.85;4.85;;;13.70;99.90;;;;;;5041425;28;20116;-70
2022/07/30 03:10:54;;;;;;;8.70;4.78;;;13.60;99.90;;;;;;5041095;28;20063;-70
2022/07/30 03:13:21;;;;;;;10.73;5.00;;;13.60;99.90;;;;;;5039350;28;20538;-70
2022/07/30 03:15:49;;;;;;;6.82;5.18;;;13.70;99.90;;;;;;5043142;28;20389;-70
2022/07/30 03:18:17;;;;;;;7.53;5.15;;;13.60;99.90;;;;;;5036175;28;20041;-70
2022/07/30 03:20:47;;;;;;;8.32;4.82;;;13.60;99.90;;;;;;5036104;28;20044;-69
2022/07/30 03:23:21;;;;;;;6.70;4.80;;;13.60;99.90;;;;;;5034001;28;20041;-70
2022/07/30 03:25:53;;;;;;;11.00;4.50;;;13.60;99.90;;;;;;5036807;28;20048;-70
2022/07/30 03:28:20;;;;;;;6.78;4.68;;;13.50;99.90;;;;;;5043211;28;20122;-69
2022/07/30 03:31:07;;;;;;;7.13;4.85;;;13.60;99.90;;;;;;5038318;28;20049;-69
2022/07/30 03:33:34;;;;;;;11.65;5.20;;;13.60;99.90;;;;;;5039300;28;20060;-69
2022/07/30 03:36:01;;;;;;;6.28;4.53;;;13.60;99.90;;;;;;5039690;28;20041;-70
2022/07/30 03:38:28;;;;;;;7.13;4.70;;;13.70;99.90;;;;;;5040945;28;20052;-70
2022/07/30 03:40:54;;;;;;;7.63;4.78;;;13.60;99.90;;;;;;5040545;28;20044;-70
2022/07/30 03:43:21;;;;;;;7.20;4.68;;;13.60;99.90;;;;;;5039344;28;20038;-70
2022/07/30 03:45:50;;;;;;;8.02;4.63;;;13.60;99.90;;;;;;5041340;28;20396;-69
2022/07/30 03:48:19;;;;;;;7.78;4.30;;;13.60;99.90;;;;;;5039359;28;20489;-70
2022/07/30 03:50:46;;;;;;;8.93;4.57;;;13.60;99.90;;;;;;5037967;28;20041;-70
2022/07/30 03:53:12;;;;;;;5.25;3.78;;;13.60;99.90;;;;;;5038208;28;20172;-69
2022/07/30 03:55:38;;;;;;;8.05;4.55;;;13.70;99.90;;;;;;5042807;28;20116;-70
2022/07/30 03:58:06;;;;;;;7.47;4.47;;;13.70;99.90;;;;;;5038858;28;20538;-70
2022/07/30 04:00:32;;;;;;;6.95;4.50;;;13.70;99.90;;;;;;5042904;28;20065;-70
2022/07/30 04:02:58;;;;;;;9.23;4.13;;;13.80;99.90;;;;;;5040028;28;20130;-70
2022/07/30 04:05:23;;;;;;;5.72;3.67;;;13.90;99.90;;;;;;5036196;28;20053;-70
2022/07/30 04:07:49;;;;;;;7.15;4.22;;;13.90;99.90;;;;;;5040859;28;20045;-70
2022/07/30 04:10:15;;;;;;;8.45;4.10;;;13.90;99.90;;;;;;5042220;28;20044;-70
2022/07/30 04:12:41;;;;;;;9.05;4.40;;;14.00;99.90;;;;;;5037758;28;20129;-70
2022/07/30 04:15:08;;;;;;;5.47;3.90;;;14.00;99.90;;;;;;5041437;28;20527;-70
2022/07/30 04:17:50;;;;;;;8.88;4.05;;;14.10;99.90;;;;;;5038013;28;20037;-70
2022/07/30 04:20:18;;;;;;;7.35;3.80;;;14.10;99.90;;;;;;5036678;28;20049;-70
2022/07/30 04:22:44;;;;;;;10.35;4.10;;;14.10;99.90;;;;;;5044922;28;20397;-70
2022/07/30 04:25:10;;;;;;;6.97;3.90;;;14.10;99.90;;;;;;5043660;28;20037;-70
2022/07/30 04:27:37;;;;;;;7.45;3.70;;;14.10;99.90;;;;;;5044625;28;20083;-70
2022/07/30 04:30:04;;;;;;;7.57;4.18;;;14.10;99.90;;;;;;5042074;28;20069;-70
2022/07/30 04:32:32;;;;;;;7.55;3.45;;;14.20;99.90;;;;;;5046991;28;20041;-70
2022/07/30 04:35:02;;;;;;;7.57;3.90;;;14.40;99.90;;;;;;5040331;28;20366;-70
2022/07/30 04:37:28;;;;;;;8.18;3.70;;;14.30;99.90;;;;;;5042112;28;20073;-70
2022/07/30 04:39:56;;;;;;;6.93;4.22;;;14.30;99.90;;;;;;5045832;28;20065;-70
2022/07/30 04:42:23;;;;;;;8.85;3.88;;;14.30;99.90;;;;;;5041847;28;20040;-70
2022/07/30 04:44:49;;;;;;;7.80;3.83;;;14.40;99.90;;;;;;5043844;28;20037;-69
2022/07/30 04:47:15;;;;;;;7.00;4.03;;;14.40;99.90;;;;;;5043856;28;20052;-70
2022/07/30 04:49:42;;;;;;;5.75;3.88;;;14.50;99.90;;;;;;5044113;28;20059;-70
2022/07/30 04:52:09;;;;;;;10.85;4.13;;;14.60;99.90;;;;;;5043467;28;20040;-70
2022/07/30 04:54:55;;;;;;;8.00;3.92;;;14.70;99.90;;;;;;5044696;28;20041;-70
2022/07/30 04:57:23;;;;;;;10.27;4.32;;;14.80;99.90;;;;;;5044305;28;20057;-70
2022/07/30 04:59:48;;;;;;;8.30;4.10;;;15.00;99.90;;;;;;5042636;28;20041;-70
2022/07/30 05:02:17;;;;;;;6.47;3.58;;;15.20;99.90;;;;;;5042157;28;20144;-70
2022/07/30 05:04:44;;;;;;;8.90;4.32;;;15.20;99.90;;;;;;5042162;28;20052;-69
2022/07/30 05:07:10;;;;;;;7.63;3.75;;;15.30;99.90;;;;;;5043092;28;20045;-70
2022/07/30 05:09:39;;;;;;;8.05;3.97;;;15.30;99.90;;;;;;5043012;28;20052;-70
2022/07/30 05:12:05;;;;;;;7.28;4.10;;;15.40;99.90;;;;;;5041968;28;20045;-70
2022/07/30 05:14:31;;;;;;;10.82;3.92;;;15.50;99.90;;;;;;5045564;28;20071;-70
2022/07/30 05:16:57;;;;;;;6.95;4.00;;;15.60;99.90;;;;;;5041453;28;20069;-70
2022/07/30 05:19:22;;;;;;;9.32;3.95;;;15.60;99.90;;;;;;5036191;28;20140;-70
2022/07/30 05:21:48;;;;;;;7.05;4.18;;;15.70;99.90;;;;;;5044473;28;20048;-71
2022/07/30 05:24:14;;;;;;;10.07;4.03;;;15.90;99.90;;;;;;5042131;28;20075;-71
2022/07/30 05:26:40;;;;;;;9.13;4.60;;;15.90;99.90;;;;;;5042797;28;20041;-70
2022/07/30 05:29:05;;;;;;;8.07;4.15;;;16.00;99.90;;;;;;5042733;28;20045;-70
2022/07/30 05:31:31;;;;;;;9.90;4.88;;;16.10;99.90;;;;;;5040977;28;20130;-70
2022/07/30 05:33:57;;;;;;;9.68;4.50;;;16.20;99.90;;;;;;5043823;28;20060;-70
2022/07/30 05:36:23;;;;;;;10.98;4.60;;;16.30;99.90;;;;;;5039244;28;20041;-70
2022/07/30 05:38:48;;;;;;;10.65;4.50;;;16.30;99.90;;;;;;5042331;28;20165;-70
2022/07/30 05:41:14;;;;;;;8.02;4.53;;;16.40;99.90;;;;;;5044369;28;20051;-70
2022/07/30 05:43:40;;;;;;;8.07;4.40;;;16.40;99.90;;;;;;5041363;28;20036;-70
2022/07/30 05:46:06;;;;;;;10.02;4.43;;;16.40;99.90;;;;;;5043243;28;20045;-70
2022/07/30 05:48:34;;;;;;;9.38;5.05;;;16.50;99.90;;;;;;5042608;28;20044;-70
2022/07/30 05:51:00;;;;;;;11.10;5.43;;;16.60;99.90;;;;;;5042000;28;20154;-70
2022/07/30 05:53:26;;;;;;;12.25;5.10;;;16.60;99.90;;;;;;5042604;28;20091;-71
2022/07/30 05:55:52;;;;;;;10.55;4.65;;;16.70;99.90;;;;;;5043134;28;20436;-70
2022/07/30 05:58:18;;;;;;;10.15;5.03;;;16.80;99.90;;;;;;5039952;28;20037;-70
2022/07/30 06:00:43;;;;;;;8.48;4.93;;;16.70;99.90;;;;;;5044740;28;20094;-71
2022/07/30 06:03:09;;;;;;;10.98;4.95;;;16.80;99.90;;;;;;5040641;28;20241;-70
2022/07/30 06:05:35;;;;;;;8.60;5.05;;;16.80;99.90;;;;;;5038709;28;20042;-70
2022/07/30 06:08:00;;;;;;;10.25;5.20;;;16.80;99.90;;;;;;5041589;28;20053;-70
2022/07/30 06:10:26;;;;;;;7.88;5.35;;;16.90;99.90;;;;;;5042461;28;20132;-70
2022/07/30 06:12:52;;;;;;;10.05;5.47;;;16.90;99.90;;;;;;5042326;28;20128;-70
2022/07/30 06:15:17;;;;;;;8.82;5.72;;;17.00;99.90;;;;;;5041300;28;20058;-71
2022/07/30 06:17:44;;;;;;;9.30;5.55;;;17.10;99.90;;;;;;5044867;28;20041;-70
2022/07/30 06:20:12;;;;;;;9.48;5.80;;;17.20;99.90;;;;;;5037828;28;20481;-69
2022/07/30 06:22:38;;;;;;;11.18;5.40;;;17.30;99.90;;;;;;5040322;28;20037;-70
2022/07/30 06:25:04;;;;;;;9.10;5.47;;;17.50;99.90;;;;;;5041868;28;20052;-70
2022/07/30 06:27:32;;;;;;;8.20;4.68;;;17.70;99.90;;;;;;5041785;28;20485;-69
2022/07/30 06:30:05;;;;;;;9.35;4.78;;;17.90;99.90;;;;;;5041209;28;20049;-69
2022/07/30 06:32:31;;;;;;;8.75;5.20;;;18.10;99.90;;;;;;5041946;28;20044;-70
2022/07/30 06:34:57;;;;;;;6.35;4.53;;;18.20;99.90;;;;;;5041893;28;20095;-70
2022/07/30 06:37:23;;;;;;;6.85;4.35;;;18.30;99.90;;;;;;5043071;28;20048;-70
2022/07/30 06:39:49;;;;;;;9.38;4.75;;;18.40;99.90;;;;;;5039347;28;20052;-71
2022/07/30 06:42:14;;;;;;;9.57;4.38;;;18.60;99.90;;;;;;5042855;28;20056;-70
2022/07/30 06:44:41;;;;;;;6.15;4.03;;;18.70;99.90;;;;;;5040630;28;20029;-71
2022/07/30 06:47:07;;;;;;;7.22;4.22;;;18.80;99.90;;;;;;5042737;28;20041;-71
2022/07/30 06:49:36;;;;;;;6.85;3.90;;;18.90;99.90;;;;;;5043205;28;20404;-70
2022/07/30 06:52:02;;;;;;;6.60;4.10;;;19.00;99.90;;;;;;5040997;28;20124;-71
2022/07/30 06:54:28;;;;;;;7.63;3.45;;;19.20;99.90;;;;;;5040700;28;20600;-70
2022/07/30 06:56:54;;;;;;;6.78;3.83;;;19.30;99.90;;;;;;5040514;28;20504;-71
2022/07/30 06:59:19;;;;;;;9.23;3.70;;;19.40;99.90;;;;;;5040228;28;20041;-70
2022/07/30 07:01:45;;;;;;;6.80;3.83;;;19.50;99.90;;;;;;5038016;28;20121;-70
2022/07/30 07:04:11;;;;;;;5.65;3.38;;;19.50;99.90;;;;;;5040135;28;20037;-70
2022/07/30 07:06:36;;;;;;;7.13;3.67;;;19.60;99.90;;;;;;5039241;28;20396;-71
2022/07/30 07:09:02;;;;;;;6.68;3.80;;;19.60;99.90;;;;;;5041427;28;20045;-71
2022/07/30 07:11:28;;;;;;;8.77;4.00;;;19.60;99.90;;;;;;5039876;28;20045;-70
2022/07/30 07:13:54;;;;;;;9.45;4.00;;;19.60;99.90;;;;;;5040452;28;20129;-70
2022/07/30 07:16:24;;;;;;;6.55;3.28;;;19.90;99.90;;;;;;5040140;28;20037;-71
2022/07/30 07:18:52;;;;;;;6.15;3.47;;;20.00;99.90;;;;;;5039305;28;20045;-71
2022/07/30 07:21:20;;;;;;;7.28;3.30;;;20.10;99.90;;;;;;5040438;28;20045;-70
2022/07/30 07:23:49;;;;;;;8.05;3.50;;;19.90;99.90;;;;;;5041416;28;20041;-70
2022/07/30 07:26:16;;;;;;;5.47;3.33;;;19.70;99.90;;;;;;5039926;28;20095;-70
2022/07/30 07:28:45;;;;;;;4.90;3.13;;;19.70;99.90;;;;;;5042981;28;20044;-70
2022/07/30 07:31:10;;;;;;;7.13;3.53;;;19.80;99.90;;;;;;5040065;28;20079;-70
2022/07/30 07:33:37;;;;;;;4.93;3.03;;;19.90;99.90;;;;;;5039373;28;20428;-71
2022/07/30 07:36:06;;;;;;;6.22;3.35;;;20.20;99.90;;;;;;5040651;28;20087;-69
2022/07/30 07:38:31;;;;;;;4.35;2.85;;;21.10;99.90;;;;;;5036173;28;20420;-70
2022/07/30 07:40:57;;;;;;;6.93;3.30;;;22.30;99.90;;;;;;5041449;28;20135;-71
2022/07/30 07:43:25;;;;;;;6.35;2.92;;;23.30;99.90;;;;;;5038582;28;20043;-70
2022/07/30 07:45:51;;;;;;;5.82;2.78;;;24.10;99.90;;;;;;5041677;28;20552;-70
2022/07/30 07:48:17;;;;;;;7.50;3.05;;;25.00;99.90;;;;;;5038317;28;20128;-70
2022/07/30 07:50:43;;;;;;;5.25;2.58;;;25.00;99.90;;;;;;5040402;28;20067;-71
2022/07/30 07:53:11;;;;;;;7.38;2.70;;;24.60;98.20;;;;;;5041295;28;20120;-70
2022/07/30 07:55:37;;;;;;;5.57;2.78;;;24.70;99.30;;;;;;5038838;28;20752;-70
2022/07/30 07:58:03;;;;;;;5.40;2.70;;;25.20;99.00;;;;;;5039956;28;20166;-79
2022/07/30 08:00:29;;;;;;;5.97;2.92;;;25.80;97.90;;;;;;5038651;28;20049;-69
2022/07/30 08:02:55;;;;;;;4.40;2.25;;;26.50;97.80;;;;;;5038941;28;20115;-69
2022/07/30 08:05:27;;;;;;;5.45;2.60;;;27.30;96.70;;;;;;5040720;28;20432;-70
2022/07/30 08:07:52;;;;;;;6.72;3.22;;;27.80;95.20;;;;;;5039217;28;20073;-72
2022/07/30 08:10:18;;;;;;;4.82;2.85;;;27.90;95.50;;;;;;5042170;28;20131;-72
2022/07/30 08:12:43;;;;;;;7.40;3.00;;;27.20;95.50;;;;;;5040170;28;20047;-70
2022/07/30 08:15:09;;;;;;;5.50;2.40;;;27.10;96.00;;;;;;5039883;28;20041;-71
2022/07/30 08:17:40;;;;;;;5.95;2.45;;;27.40;95.50;;;;;;5039881;28;20128;-69
2022/07/30 08:20:07;;;;;;;5.85;2.70;;;27.90;95.10;;;;;;5038479;28;20120;-72
2022/07/30 08:22:32;;;;;;;5.75;2.33;;;28.30;94.60;;;;;;5040992;28;20041;-70
2022/07/30 08:25:01;;;;;;;6.53;2.95;;;28.30;94.30;;;;;;5038013;28;20061;-71
2022/07/30 08:27:30;;;;;;;6.43;2.90;;;28.70;93.30;;;;;;5041022;28;20437;-71
2022/07/30 08:29:56;;;;;;;8.60;3.83;;;29.30;93.40;;;;;;5038166;28;21140;-73
2022/07/30 08:32:22;;;;;;;5.07;2.85;;;29.50;93.10;;;;;;5039494;28;20131;-71
2022/07/30 08:34:48;;;;;;;3.85;2.25;;;29.90;91.70;;;;;;5040318;28;20505;-72
2022/07/30 08:37:14;;;;;;;6.43;2.33;;;30.00;90.90;;;;;;5037610;28;20124;-72
2022/07/30 08:39:40;;;;;;;5.65;2.40;;;30.60;92.30;;;;;;5038210;28;20033;-73
2022/07/30 08:42:11;;;;;;;4.72;2.30;;;30.20;91.60;;;;;;5038219;28;20053;-74
2022/07/30 08:44:39;;;;;;;4.50;2.20;;;29.50;91.70;;;;;;5040467;28;20052;-74
2022/07/30 08:47:08;;;;;;;4.72;2.50;;;28.80;91.60;;;;;;5037911;28;20042;-74
2022/07/30 08:49:38;;;;;;;7.88;3.25;;;28.00;92.30;;;;;;5040912;28;20067;-73
2022/07/30 08:52:07;;;;;;;4.13;2.40;;;27.90;91.60;;;;;;5039618;28;20394;-73
2022/07/30 08:54:34;;;;;;;5.25;2.40;;;28.40;92.50;;;;;;5039973;28;20057;-73
2022/07/30 08:57:00;;;;;;;4.65;2.45;;;29.00;91.10;;;;;;5039063;28;20077;-73
2022/07/30 08:59:26;;;;;;;7.43;2.42;;;29.50;91.50;;;;;;5041007;28;20055;-73
2022/07/30 09:01:52;;;;;;;6.32;2.88;;;30.30;90.30;;;;;;5037830;28;20061;-73
2022/07/30 09:04:17;;;;;;;5.13;2.58;;;30.30;90.80;;;;;;5040750;28;20136;-73
2022/07/30 09:06:43;;;;;;;4.97;2.60;;;28.70;89.60;;;;;;5045993;28;20029;-73
2022/07/30 09:09:09;;;;;;;7.13;2.60;;;28.60;90.80;;;;;;5038438;28;20401;-73
2022/07/30 09:11:35;;;;;;;4.35;2.17;;;28.80;91.80;;;;;;5043434;28;20045;-73
2022/07/30 09:14:13;;;;;;;6.53;2.13;;;29.50;91.20;;;;;;5043793;28;20397;-74
2022/07/30 09:16:39;;;;;;;5.82;2.65;;;29.70;90.50;;;;;;5043227;28;20055;-73
2022/07/30 09:19:31;;;;;;;4.85;2.38;;;28.80;91.00;;;;;;5040254;28;20132;-73
2022/07/30 09:21:59;;;;;;;4.25;2.35;;;28.30;91.50;;;;;;5039754;28;20527;-73
2022/07/30 09:24:25;;;;;;;4.88;2.20;;;28.40;91.80;;;;;;5044765;28;20087;-72
2022/07/30 09:27:00;;;;;;;5.97;2.40;;;28.80;92.00;;;;;;5042408;28;20175;-73
2022/07/30 09:29:30;;;;;;;4.95;2.33;;;28.60;91.20;;;;;;5043779;28;20499;-73
2022/07/30 09:32:14;;;;;;;6.88;2.13;;;28.80;91.50;;;;;;5043934;28;20069;-73
2022/07/30 09:34:39;;;;;;;6.10;2.08;;;29.10;90.80;;;;;;5040502;28;20493;-76
2022/07/30 09:37:08;;;;;;;4.07;1.95;;;29.20;90.80;;;;;;5042701;28;20082;-78
2022/07/30 09:39:38;;;;;;;3.30;2.10;;;28.80;90.40;;;;;;5041116;28;20538;-77
2022/07/30 09:42:24;;;;;;;3.53;2.00;;;29.00;90.70;;;;;;5044701;28;20053;-78
2022/07/30 09:44:50;;;;;;;;;;;29.10;90.70;;;;;;5039977;28;20038;-77
2022/07/30 09:47:40;;;;;;;6.07;2.08;;;29.10;90.20;;;;;;5040717;28;19928;-77
2022/07/30 09:50:14;;;;;;;4.13;2.00;;;29.30;90.90;;;;;;5044302;28;20040;-76
2022/07/30 09:52:42;;;;;;;5.53;1.95;;;29.60;90.90;;;;;;5036988;28;20042;-77
2022/07/30 09:55:09;;;;;;;4.60;1.85;;;29.60;89.80;;;;;;5037339;28;20129;-77
2022/07/30 09:57:35;;;;;;;4.75;1.80;;;29.80;91.00;;;;;;5042917;28;20044;-79
2022/07/30 10:00:22;;;;;;;5.15;2.22;;;29.90;89.40;;;;;;5041040;28;20045;-78
2022/07/30 10:02:50;;;;;;;5.85;2.17;;;29.50;89.50;;;;;;5041502;28;20045;-77
2022/07/30 10:05:20;;;;;;;7.93;2.40;;;28.60;90.50;;;;;;5042165;28;20123;-77
2022/07/30 10:08:01;;;;;;;3.88;1.92;;;28.80;90.70;;;;;;5041261;28;20091;-77
2022/07/30 10:10:29;;;;;;;4.03;1.92;;;29.10;90.20;;;;;;5042310;28;20045;-76
2022/07/30 10:12:59;;;;;;;4.05;1.77;;;29.40;90.60;;;;;;5041534;28;20045;-76
2022/07/30 10:15:29;;;;;;;3.17;1.70;;;29.50;90.00;;;;;;5040368;28;20045;-77
2022/07/30 10:17:55;;;;;;;4.03;1.90;;;29.70;90.30;;;;;;5037301;28;20521;-77
2022/07/30 10:20:21;;;;;;;4.55;1.70;;;30.00;90.30;;;;;;5041730;28;20063;-77
2022/07/30 10:22:47;;;;;;;3.35;1.63;;;30.30;90.40;;;;;;5041332;28;20502;-77
2022/07/30 10:25:17;;;;;;;3.45;1.77;;;30.90;90.30;;;;;;5041250;28;20555;-77
2022/07/30 10:27:44;;;;;;;4.60;1.80;;;31.40;89.10;;;;;;5040830;28;20048;-77
2022/07/30 10:30:11;;;;;;;3.35;1.50;;;31.50;88.20;;;;;;5042496;28;20045;-79
2022/07/30 10:32:37;;;;;;;4.30;1.95;;;31.40;88.70;;;;;;5040143;28;20056;-79
2022/07/30 10:35:04;;;;;;;3.92;1.60;;;31.60;86.30;;;;;;5040708;28;20040;-79
2022/07/30 10:37:32;;;;;;;4.47;1.75;;;31.40;85.00;;;;;;5036722;28;20520;-78
2022/07/30 10:40:23;;;;;;;4.38;1.65;;;31.40;87.80;;;;;;5041714;28;20037;-78
2022/07/30 10:43:10;;;;;;;4.35;1.90;;;31.80;85.50;;;;;;5042094;28;20055;-77
2022/07/30 10:45:48;;;;;;;4.22;1.50;;;31.50;87.50;;;;;;5036191;28;20057;-75
2022/07/30 10:48:15;;;;;;;3.65;1.67;;;31.30;87.20;;;;;;5038961;28;20044;-76
2022/07/30 10:50:54;;;;;;;5.22;1.83;;;31.10;85.70;;;;;;5042130;28;20385;-75
2022/07/30 10:53:35;;;;;;;4.63;1.98;;;31.00;87.40;;;;;;5039657;28;20047;-77
2022/07/30 10:56:22;;;;;;;4.50;1.80;;;31.10;86.80;;;;;;5035413;28;20531;-75
2022/07/30 10:59:14;;;;;;;4.63;1.67;;;30.60;84.70;;;;;;5040443;28;20051;-76
2022/07/30 11:01:46;;;;;;;4.13;1.60;;;30.40;86.10;;;;;;5037598;28;20445;-76
2022/07/30 11:04:21;;;;;;;3.95;1.85;;;30.20;87.80;;;;;;5041706;28;20083;-76
2022/07/30 11:06:48;;;;;;;4.85;1.92;;;30.90;87.10;;;;;;5041062;28;20451;-76
2022/07/30 11:09:41;;;;;;;3.78;1.63;;;31.30;86.70;;;;;;5041430;28;20045;-76
2022/07/30 11:12:08;;;;;;;4.47;1.70;;;31.70;85.00;;;;;;5035862;28;20072;-75
2022/07/30 11:14:46;;;;;;;3.30;1.40;;;31.60;84.40;;;;;;5041094;28;20041;-76
2022/07/30 11:17:17;;;;;;;5.70;1.60;;;31.70;85.10;;;;;;5040129;28;20573;-76
2022/07/30 11:20:01;;;;;;;3.60;1.45;;;31.50;85.50;;;;;;5041509;28;20086;-75
2022/07/30 11:22:39;;;;;;;5.18;1.73;;;31.60;85.80;;;;;;5034607;28;20489;-76
2022/07/30 11:25:28;;;;;;;2.35;1.20;;;31.40;83.00;;;;;;5042103;28;20045;-75
2022/07/30 11:27:54;;;;;;;4.15;1.63;;;31.40;85.00;;;;;;5033608;28;20041;-77
2022/07/30 11:30:32;;;;;;;3.03;1.50;;;31.40;84.80;;;;;;5041317;28;20106;-77
2022/07/30 11:33:04;;;;;;;3.63;1.40;;;31.70;83.40;;;;;;5036109;28;20112;-76
2022/07/30 11:35:34;;;;;;;4.93;1.60;;;31.50;82.50;;;;;;5040275;28;20049;-77
2022/07/30 11:38:19;;;;;;;3.05;1.42;;;30.90;83.00;;;;;;5039134;28;20090;-76
2022/07/30 11:40:45;;;;;;;3.25;1.40;;;30.70;83.80;;;;;;5039552;28;20075;-77
2022/07/30 11:43:31;;;;;;;3.03;1.40;;;30.50;84.60;;;;;;5041363;28;20053;-76
2022/07/30 11:46:33;;;;;;;3.33;1.30;;;30.40;84.20;;;;;;5035995;28;20428;-76
2022/07/30 11:49:03;;;;;;;4.05;1.20;;;30.30;84.10;;;;;;5037771;28;20046;-75
2022/07/30 11:51:42;;;;;;;3.45;1.40;;;30.20;84.70;;;;;;5040871;28;20051;-75
2022/07/30 11:54:09;;;;;;;4.45;1.42;;;30.00;83.60;;;;;;5042092;28;20052;-72
2022/07/30 11:56:35;;;;;;;2.63;1.40;;;30.40;84.00;;;;;;5039472;28;20480;-74
2022/07/30 11:59:06;;;;;;;2.83;1.40;;;30.80;82.90;;;;;;5039810;28;20083;-74
2022/07/30 12:01:34;;;;;;;3.72;1.50;;;30.50;83.50;;;;;;5036089;28;20132;-75
2022/07/30 12:04:04;;;;;;;3.83;1.40;;;30.30;82.50;;;;;;5038787;28;20045;-75
2022/07/30 12:06:31;;;;;;;4.45;1.55;;;30.40;82.10;;;;;;5040489;28;20041;-74
2022/07/30 12:08:58;;;;;;;5.28;1.30;;;30.20;83.40;;;;;;5039455;28;20053;-75
2022/07/30 12:11:24;;;;;;;2.95;1.30;;;29.70;83.70;;;;;;5041794;28;20033;-75
2022/07/30 12:13:58;;;;;;;3.65;1.30;;;29.80;85.40;;;;;;5038571;28;20393;-76
2022/07/30 12:16:25;;;;;;;3.83;1.45;;;29.40;84.70;;;;;;5041094;28;20392;-75
2022/07/30 12:18:51;;;;;;;2.45;1.08;;;29.60;84.40;;;;;;5037365;28;20034;-74
2022/07/30 12:21:18;;;;;;;3.03;1.20;;;29.80;84.50;;;;;;5043087;28;20047;-75
2022/07/30 12:23:54;;;;;;;3.42;1.70;;;29.90;84.80;;;;;;5034486;28;20389;-74
2022/07/30 12:26:26;;;;;;;3.97;1.40;;;29.80;84.50;;;;;;5034953;28;20046;-74
2022/07/30 12:28:52;;;;;;;3.60;1.30;;;29.80;83.70;;;;;;5040676;28;20098;-75
2022/07/30 12:31:19;;;;;;;2.40;1.20;;;29.90;84.00;;;;;;5037274;28;20049;-75
2022/07/30 12:33:45;;;;;;;2.88;1.30;;;29.60;82.90;;;;;;5038275;28;20038;-75
2022/07/30 12:36:27;;;;;;;3.38;1.27;;;29.60;83.20;;;;;;5033555;28;20046;-74
2022/07/30 12:38:53;;;;;;;2.65;1.30;;;29.20;82.80;;;;;;5038209;28;20057;-76
2022/07/30 12:41:19;;;;;;;2.53;1.20;;;29.30;82.10;;;;;;5044793;28;20179;-74
2022/07/30 12:43:50;;;;;;;2.53;1.13;;;29.10;81.50;;;;;;5042548;28;20401;-74
2022/07/30 12:46:21;;;;;;;2.67;1.00;;;28.90;81.80;;;;;;5043923;28;20071;-74
2022/07/30 12:49:04;;;;;;;2.38;1.17;;;28.80;81.50;;;;;;5038303;28;20045;-73
2022/07/30 12:51:32;;;;;;;3.15;1.00;;;28.80;83.60;;;;;;5042906;28;20068;-73
2022/07/30 12:53:59;;;;;;;2.92;1.23;;;28.70;79.80;;;;;;5043005;28;20120;-73
2022/07/30 12:56:28;;;;;;;2.45;1.02;;;28.80;80.40;;;;;;5044143;28;20060;-72